createdAt,value
2017-09-26T00:00:06.691Z,0
2017-09-26T00:01:06.267Z,0
2017-09-26T00:02:01.248Z,0
2017-09-26T00:02:55.272Z,0
2017-09-26T00:03:50.347Z,0
2017-09-26T00:04:51.825Z,0
2017-09-26T00:05:45.423Z,0
2017-09-26T00:06:45.389Z,0
2017-09-26T00:07:40.421Z,0
2017-09-26T00:08:35.497Z,0
2017-09-26T00:09:41.813Z,0
2017-09-26T00:10:41.522Z,0
2017-09-26T00:11:41.638Z,0
2017-09-26T00:12:35.594Z,0
2017-09-26T00:13:35.913Z,0
2017-09-26T00:14:36.019Z,0
2017-09-26T00:15:30.698Z,0
2017-09-26T00:16:18.777Z,0
2017-09-26T00:17:18.877Z,0
2017-09-26T00:18:12.811Z,0
2017-09-26T00:19:12.812Z,0
2017-09-26T00:20:07.093Z,0
2017-09-26T00:21:01.915Z,0
2017-09-26T00:21:50.950Z,0
2017-09-26T00:22:45.003Z,0
2017-09-26T00:23:44.985Z,0
2017-09-26T00:24:33.038Z,0
2017-09-26T00:25:22.139Z,0
2017-09-26T00:26:10.156Z,0
2017-09-26T00:26:58.177Z,0
2017-09-26T00:27:52.539Z,0
2017-09-26T00:28:41.652Z,0
2017-09-26T00:29:30.504Z,0
2017-09-26T00:30:19.466Z,0
2017-09-26T00:31:07.403Z,0
2017-09-26T00:31:55.953Z,0
2017-09-26T00:32:49.420Z,0
2017-09-26T00:33:49.506Z,0
2017-09-26T00:34:49.564Z,0
2017-09-26T00:35:37.553Z,0
2017-09-26T00:36:37.571Z,0
2017-09-26T00:37:32.604Z,0
2017-09-26T00:38:20.627Z,0
2017-09-26T00:39:09.713Z,0
2017-09-26T00:39:58.199Z,0
2017-09-26T00:40:46.801Z,0
2017-09-26T00:41:46.791Z,0
2017-09-26T00:42:35.811Z,0
2017-09-26T00:43:23.889Z,0
2017-09-26T00:44:11.957Z,0
2017-09-26T00:45:00.097Z,0
2017-09-26T00:45:48.980Z,0
2017-09-26T00:46:37.044Z,0
2017-09-26T00:47:25.097Z,0
2017-09-26T00:48:14.112Z,0
2017-09-26T00:49:02.177Z,0
2017-09-26T00:49:51.227Z,0
2017-09-26T00:50:45.239Z,0
2017-09-26T00:51:39.300Z,0
2017-09-26T00:52:28.340Z,0
2017-09-26T00:53:16.380Z,0
2017-09-26T00:54:05.384Z,0
2017-09-26T00:54:53.970Z,0
2017-09-26T00:55:41.453Z,0
2017-09-26T00:56:29.541Z,0
2017-09-26T00:57:18.530Z,0
2017-09-26T00:58:06.591Z,0
2017-09-26T00:59:01.118Z,0
2017-09-26T00:59:49.681Z,0
2017-09-26T01:00:38.857Z,0
2017-09-26T01:01:32.849Z,0
2017-09-26T01:02:21.801Z,0
2017-09-26T01:03:21.807Z,0
2017-09-26T01:04:15.864Z,0
2017-09-26T01:05:03.893Z,0
2017-09-26T01:06:04.034Z,0
2017-09-26T01:06:52.971Z,0
2017-09-26T01:07:47.024Z,0
2017-09-26T01:08:36.062Z,0
2017-09-26T01:09:31.196Z,0
2017-09-26T01:10:31.118Z,0
2017-09-26T01:11:26.185Z,0
2017-09-26T01:12:21.534Z,0
2017-09-26T01:13:21.239Z,0
2017-09-26T01:14:16.401Z,0
2017-09-26T01:15:11.278Z,0
2017-09-26T01:16:12.317Z,0
2017-09-26T01:17:12.873Z,0
2017-09-26T01:18:06.393Z,0
2017-09-26T01:19:00.403Z,0
2017-09-26T01:19:54.998Z,0
2017-09-26T01:20:54.487Z,0
2017-09-26T01:21:42.512Z,0
2017-09-26T01:22:42.592Z,0
2017-09-26T01:23:42.596Z,0
2017-09-26T01:24:36.656Z,0
2017-09-26T01:25:36.666Z,0
2017-09-26T01:26:30.693Z,0
2017-09-26T01:27:30.693Z,0
2017-09-26T01:28:24.786Z,0
2017-09-26T01:29:20.267Z,0
2017-09-26T01:30:20.051Z,0
2017-09-26T01:31:19.911Z,0
2017-09-26T01:32:13.888Z,0
2017-09-26T01:33:13.909Z,0
2017-09-26T01:34:09.313Z,0
2017-09-26T01:35:04.339Z,0
2017-09-26T01:36:10.011Z,0
2017-09-26T01:37:10.033Z,0
2017-09-26T01:38:10.105Z,0
2017-09-26T01:39:04.494Z,0
2017-09-26T01:40:04.180Z,0
2017-09-26T01:41:04.189Z,0
2017-09-26T01:41:59.215Z,0
2017-09-26T01:42:48.274Z,0
2017-09-26T01:43:42.293Z,0
2017-09-26T01:44:48.313Z,0
2017-09-26T01:45:43.422Z,0
2017-09-26T01:46:32.896Z,0
2017-09-26T01:47:32.415Z,0
2017-09-26T01:48:20.476Z,0
2017-09-26T01:49:08.552Z,0
2017-09-26T01:49:57.525Z,0
2017-09-26T01:50:51.609Z,0
2017-09-26T01:51:40.646Z,0
2017-09-26T01:52:29.697Z,0
2017-09-26T01:53:17.697Z,0
2017-09-26T01:54:06.738Z,0
2017-09-26T01:54:56.319Z,0
2017-09-26T01:55:49.843Z,0
2017-09-26T01:56:39.227Z,0
2017-09-26T01:57:32.901Z,0
2017-09-26T01:58:28.389Z,0
2017-09-26T01:59:22.077Z,0
2017-09-26T02:00:16.556Z,0
2017-09-26T02:01:10.025Z,0
2017-09-26T02:02:05.099Z,0
2017-09-26T02:02:54.094Z,0
2017-09-26T02:03:55.668Z,0
2017-09-26T02:04:56.688Z,0
2017-09-26T02:05:50.200Z,0
2017-09-26T02:06:50.479Z,0
2017-09-26T02:07:45.294Z,0
2017-09-26T02:08:40.299Z,0
2017-09-26T02:09:40.682Z,0
2017-09-26T02:10:35.379Z,0
2017-09-26T02:11:30.399Z,0
2017-09-26T02:12:30.467Z,0
2017-09-26T02:13:25.582Z,0
2017-09-26T02:14:20.820Z,0
2017-09-26T02:15:22.019Z,0
2017-09-26T02:16:21.667Z,0
2017-09-26T02:17:21.888Z,0
2017-09-26T02:18:16.682Z,0
2017-09-26T02:19:10.672Z,0
2017-09-26T02:20:11.045Z,0
2017-09-26T02:21:05.760Z,0
2017-09-26T02:22:12.258Z,0
2017-09-26T02:23:06.989Z,0
2017-09-26T02:24:01.131Z,0
2017-09-26T02:24:49.409Z,0
2017-09-26T02:25:36.892Z,0
2017-09-26T02:26:26.242Z,0
2017-09-26T02:27:14.238Z,0
2017-09-26T02:28:03.012Z,0
2017-09-26T02:28:57.095Z,0
2017-09-26T02:29:57.585Z,0
2017-09-26T02:30:58.136Z,0
2017-09-26T02:31:58.222Z,0
2017-09-26T02:32:53.457Z,0
2017-09-26T02:33:53.264Z,0
2017-09-26T02:34:47.731Z,0
2017-09-26T02:35:41.333Z,0
2017-09-26T02:36:35.381Z,0
2017-09-26T02:37:35.469Z,0
2017-09-26T02:38:29.392Z,0
2017-09-26T02:39:29.769Z,0
2017-09-26T02:40:29.497Z,0
2017-09-26T02:41:30.086Z,0
2017-09-26T02:42:23.532Z,0
2017-09-26T02:43:24.628Z,0
2017-09-26T02:44:24.613Z,0
2017-09-26T02:45:24.642Z,0
2017-09-26T02:46:18.689Z,0
2017-09-26T02:47:20.165Z,0
2017-09-26T02:48:19.767Z,0
2017-09-26T02:49:14.799Z,0
2017-09-26T02:50:09.103Z,0
2017-09-26T02:50:57.889Z,0
2017-09-26T02:51:52.428Z,0
2017-09-26T02:52:52.348Z,0
2017-09-26T02:53:45.961Z,0
2017-09-26T02:54:40.029Z,0
2017-09-26T02:55:34.007Z,0
2017-09-26T02:56:34.085Z,0
2017-09-26T02:57:34.098Z,0
2017-09-26T02:58:28.191Z,0
2017-09-26T02:59:22.218Z,0
2017-09-26T03:00:16.748Z,0
2017-09-26T03:01:05.256Z,0
2017-09-26T03:02:05.311Z,0
2017-09-26T03:03:00.309Z,0
2017-09-26T03:03:48.416Z,0
2017-09-26T03:04:42.828Z,0
2017-09-26T03:05:36.428Z,0
2017-09-26T03:06:36.509Z,0
2017-09-26T03:07:36.796Z,0
2017-09-26T03:08:25.514Z,0
2017-09-26T03:09:14.597Z,0
2017-09-26T03:10:09.704Z,0
2017-09-26T03:11:09.661Z,0
2017-09-26T03:11:58.692Z,0
2017-09-26T03:12:52.721Z,0
2017-09-26T03:13:52.710Z,0
2017-09-26T03:14:46.798Z,0
2017-09-26T03:15:46.801Z,0
2017-09-26T03:16:40.870Z,0
2017-09-26T03:17:35.061Z,0
2017-09-26T03:18:29.031Z,0
2017-09-26T03:19:17.978Z,0
2017-09-26T03:20:13.010Z,0
2017-09-26T03:21:01.065Z,0
2017-09-26T03:21:49.095Z,0
2017-09-26T03:22:44.113Z,0
2017-09-26T03:23:38.164Z,0
2017-09-26T03:24:32.659Z,0
2017-09-26T03:25:27.232Z,0
2017-09-26T03:26:21.375Z,0
2017-09-26T03:27:21.302Z,0
2017-09-26T03:28:10.309Z,0
2017-09-26T03:29:04.568Z,0
2017-09-26T03:29:58.950Z,0
2017-09-26T03:30:47.496Z,0
2017-09-26T03:31:35.493Z,0
2017-09-26T03:32:29.632Z,0
2017-09-26T03:33:29.600Z,0
2017-09-26T03:34:18.589Z,0
2017-09-26T03:35:06.661Z,0
2017-09-26T03:35:54.695Z,0
2017-09-26T03:36:42.765Z,0
2017-09-26T03:37:31.999Z,0
2017-09-26T03:38:26.796Z,0
2017-09-26T03:39:27.810Z,0
2017-09-26T03:40:22.547Z,0
2017-09-26T03:41:21.900Z,0
2017-09-26T03:42:15.916Z,0
2017-09-26T03:43:15.940Z,0
2017-09-26T03:44:10.001Z,0
2017-09-26T03:45:05.014Z,0
2017-09-26T03:46:00.074Z,0
2017-09-26T03:46:54.130Z,0
2017-09-26T03:47:43.188Z,0
2017-09-26T03:48:31.212Z,0
2017-09-26T03:49:25.317Z,0
2017-09-26T03:50:26.249Z,0
2017-09-26T03:51:20.303Z,0
2017-09-26T03:52:15.433Z,0
2017-09-26T03:53:15.409Z,0
2017-09-26T03:54:15.387Z,0
2017-09-26T03:55:10.416Z,0
2017-09-26T03:55:59.494Z,0
2017-09-26T03:56:53.547Z,0
2017-09-26T03:57:42.577Z,0
2017-09-26T03:58:36.623Z,0
2017-09-26T03:59:37.103Z,0
2017-09-26T04:00:25.621Z,0
2017-09-26T04:01:25.762Z,0
2017-09-26T04:02:19.701Z,0
2017-09-26T04:03:19.779Z,0
2017-09-26T04:04:14.203Z,0
2017-09-26T04:05:13.793Z,0
2017-09-26T04:06:08.872Z,0
2017-09-26T04:06:56.888Z,0
2017-09-26T04:07:52.446Z,0
2017-09-26T04:08:40.968Z,0
2017-09-26T04:09:35.153Z,0
2017-09-26T04:10:29.015Z,0
2017-09-26T04:11:17.085Z,0
2017-09-26T04:12:11.113Z,0
2017-09-26T04:13:06.301Z,0
2017-09-26T04:14:06.186Z,0
2017-09-26T04:15:00.547Z,0
2017-09-26T04:15:55.367Z,0
2017-09-26T04:16:49.415Z,0
2017-09-26T04:17:49.291Z,0
2017-09-26T04:18:44.439Z,0
2017-09-26T04:19:38.834Z,0
2017-09-26T04:20:38.392Z,0
2017-09-26T04:21:33.457Z,0
2017-09-26T04:22:33.651Z,0
2017-09-26T04:23:27.511Z,0
2017-09-26T04:24:27.548Z,0
2017-09-26T04:25:23.291Z,0
2017-09-26T04:26:16.602Z,0
2017-09-26T04:27:16.630Z,0
2017-09-26T04:28:10.694Z,0
2017-09-26T04:28:59.736Z,0
2017-09-26T04:29:53.783Z,0
2017-09-26T04:30:59.798Z,0
2017-09-26T04:32:00.181Z,0
2017-09-26T04:32:54.863Z,0
2017-09-26T04:33:49.055Z,0
2017-09-26T04:34:49.159Z,0
2017-09-26T04:35:43.979Z,0
2017-09-26T04:36:39.000Z,0
2017-09-26T04:37:40.214Z,0
2017-09-26T04:38:28.068Z,0
2017-09-26T04:39:16.099Z,0
2017-09-26T04:40:17.606Z,0
2017-09-26T04:41:11.179Z,0
2017-09-26T04:42:11.795Z,0
2017-09-26T04:43:06.258Z,0
2017-09-26T04:44:01.270Z,0
2017-09-26T04:44:49.349Z,0
2017-09-26T04:45:44.363Z,0
2017-09-26T04:46:33.392Z,0
2017-09-26T04:47:27.939Z,0
2017-09-26T04:48:27.471Z,0
2017-09-26T04:49:27.635Z,0
2017-09-26T04:50:23.089Z,0
2017-09-26T04:51:16.569Z,4
2017-09-26T04:52:16.946Z,4
2017-09-26T04:53:12.083Z,4
2017-09-26T04:54:11.670Z,0
2017-09-26T04:55:01.137Z,4
2017-09-26T04:55:54.715Z,4
2017-09-26T04:56:43.771Z,4
2017-09-26T04:57:31.786Z,4
2017-09-26T04:58:20.915Z,4
2017-09-26T04:59:14.899Z,8
2017-09-26T05:00:02.920Z,8
2017-09-26T05:00:51.978Z,8
2017-09-26T05:01:46.095Z,8
2017-09-26T05:02:35.015Z,12
2017-09-26T05:03:24.099Z,12
2017-09-26T05:04:24.254Z,16
2017-09-26T05:05:13.307Z,20
2017-09-26T05:06:07.191Z,20
2017-09-26T05:07:02.214Z,24
2017-09-26T05:08:02.284Z,32
2017-09-26T05:09:02.316Z,36
2017-09-26T05:09:57.361Z,40
2017-09-26T05:10:51.381Z,44
2017-09-26T05:11:40.802Z,48
2017-09-26T05:12:35.426Z,56
2017-09-26T05:13:30.555Z,64
2017-09-26T05:14:19.660Z,64
2017-09-26T05:15:14.562Z,76
2017-09-26T05:16:14.593Z,84
2017-09-26T05:17:09.612Z,92
2017-09-26T05:18:03.672Z,100
2017-09-26T05:18:58.685Z,108
2017-09-26T05:19:52.714Z,124
2017-09-26T05:20:47.847Z,144
2017-09-26T05:21:41.785Z,164
2017-09-26T05:22:37.075Z,188
2017-09-26T05:23:25.885Z,184
2017-09-26T05:24:20.903Z,212
2017-09-26T05:25:15.954Z,228
2017-09-26T05:26:17.070Z,252
2017-09-26T05:27:17.200Z,276
2017-09-26T05:28:11.019Z,316
2017-09-26T05:29:11.078Z,348
2017-09-26T05:30:05.107Z,388
2017-09-26T05:30:54.200Z,424
2017-09-26T05:31:49.739Z,448
2017-09-26T05:32:43.199Z,472
2017-09-26T05:33:43.284Z,528
2017-09-26T05:34:37.883Z,576
2017-09-26T05:35:37.303Z,624
2017-09-26T05:36:32.382Z,648
2017-09-26T05:37:20.409Z,684
2017-09-26T05:38:20.563Z,720
2017-09-26T05:39:15.487Z,776
2017-09-26T05:40:09.491Z,840
2017-09-26T05:41:04.637Z,940
2017-09-26T05:41:59.600Z,980
2017-09-26T05:43:01.097Z,996
2017-09-26T05:44:00.633Z,1072
2017-09-26T05:45:00.698Z,1128
2017-09-26T05:45:54.695Z,1156
2017-09-26T05:46:54.768Z,1188
2017-09-26T05:47:50.370Z,1264
2017-09-26T05:48:44.037Z,1380
2017-09-26T05:49:44.620Z,1492
2017-09-26T05:50:43.890Z,1560
2017-09-26T05:51:43.898Z,1664
2017-09-26T05:52:33.222Z,1696
2017-09-26T05:53:27.997Z,1824
2017-09-26T05:54:17.056Z,1976
2017-09-26T05:55:11.092Z,2004
2017-09-26T05:56:11.261Z,2116
2017-09-26T05:57:05.168Z,2196
2017-09-26T05:57:59.183Z,2308
2017-09-26T05:58:47.272Z,2436
2017-09-26T05:59:41.975Z,2500
2017-09-26T06:00:36.593Z,2560
2017-09-26T06:01:30.361Z,2636
2017-09-26T06:02:24.380Z,2820
2017-09-26T06:03:13.406Z,2924
2017-09-26T06:04:13.476Z,2980
2017-09-26T06:05:13.458Z,3072
2017-09-26T06:06:13.486Z,3028
2017-09-26T06:07:13.578Z,3024
2017-09-26T06:08:19.566Z,3080
2017-09-26T06:09:13.604Z,3080
2017-09-26T06:10:08.770Z,3252
2017-09-26T06:11:02.665Z,3532
2017-09-26T06:11:51.725Z,3584
2017-09-26T06:12:39.756Z,3716
2017-09-26T06:13:27.776Z,3996
2017-09-26T06:14:21.835Z,4012
2017-09-26T06:15:21.866Z,4192
2017-09-26T06:16:16.188Z,4432
2017-09-26T06:17:15.928Z,4184
2017-09-26T06:18:11.028Z,4672
2017-09-26T06:19:04.985Z,5156
2017-09-26T06:20:06.079Z,5464
2017-09-26T06:21:06.318Z,5516
2017-09-26T06:21:55.176Z,5656
2017-09-26T06:22:55.155Z,5928
2017-09-26T06:23:44.190Z,6160
2017-09-26T06:24:39.777Z,6240
2017-09-26T06:25:27.280Z,7332
2017-09-26T06:26:27.329Z,6840
2017-09-26T06:27:21.842Z,7376
2017-09-26T06:28:21.538Z,7164
2017-09-26T06:29:16.729Z,7180
2017-09-26T06:30:10.727Z,7760
2017-09-26T06:31:04.496Z,8132
2017-09-26T06:32:04.512Z,7760
2017-09-26T06:33:04.588Z,8028
2017-09-26T06:33:52.602Z,8100
2017-09-26T06:34:47.080Z,8100
2017-09-26T06:35:41.708Z,8236
2017-09-26T06:36:42.701Z,8672
2017-09-26T06:37:31.774Z,7712
2017-09-26T06:38:33.008Z,7740
2017-09-26T06:39:27.802Z,8032
2017-09-26T06:40:21.893Z,8060
2017-09-26T06:41:10.150Z,8072
2017-09-26T06:42:03.952Z,8188
2017-09-26T06:42:59.052Z,8184
2017-09-26T06:43:59.172Z,7384
2017-09-26T06:44:48.023Z,7204
2017-09-26T06:45:43.091Z,7664
2017-09-26T06:46:32.373Z,7208
2017-09-26T06:47:26.363Z,7276
2017-09-26T06:48:32.578Z,7804
2017-09-26T06:49:26.545Z,7676
2017-09-26T06:50:26.554Z,7668
2017-09-26T06:51:14.359Z,7700
2017-09-26T06:52:09.397Z,8484
2017-09-26T06:53:09.400Z,9044
2017-09-26T06:54:04.448Z,8656
2017-09-26T06:55:04.558Z,9036
2017-09-26T06:55:59.504Z,8684
2017-09-26T06:56:54.577Z,9260
2017-09-26T06:57:48.601Z,9332
2017-09-26T06:58:48.783Z,9888
2017-09-26T06:59:44.407Z,10040
2017-09-26T07:00:38.709Z,10204
2017-09-26T07:01:38.769Z,10348
2017-09-26T07:02:33.238Z,9096
2017-09-26T07:03:33.801Z,9148
2017-09-26T07:04:27.881Z,9864
2017-09-26T07:05:16.900Z,10684
2017-09-26T07:06:11.977Z,9468
2017-09-26T07:07:06.982Z,9420
2017-09-26T07:08:06.999Z,9024
2017-09-26T07:09:02.020Z,9064
2017-09-26T07:09:56.130Z,8660
2017-09-26T07:10:51.106Z,8716
2017-09-26T07:11:51.726Z,9568
2017-09-26T07:12:45.198Z,8948
2017-09-26T07:13:45.259Z,8932
2017-09-26T07:14:34.280Z,9420
2017-09-26T07:15:29.311Z,9324
2017-09-26T07:16:23.385Z,9616
2017-09-26T07:17:23.406Z,11072
2017-09-26T07:18:17.413Z,10704
2017-09-26T07:19:17.481Z,10872
2017-09-26T07:20:12.535Z,10652
2017-09-26T07:21:12.530Z,11464
2017-09-26T07:22:07.597Z,11408
2017-09-26T07:23:01.682Z,12396
2017-09-26T07:23:55.680Z,11648
2017-09-26T07:24:50.655Z,11024
2017-09-26T07:25:45.868Z,11464
2017-09-26T07:26:39.920Z,12240
2017-09-26T07:27:41.050Z,13664
2017-09-26T07:28:34.943Z,12832
2017-09-26T07:29:28.947Z,12212
2017-09-26T07:30:23.912Z,11920
2017-09-26T07:31:18.946Z,11576
2017-09-26T07:32:13.226Z,10816
2017-09-26T07:33:08.267Z,10976
2017-09-26T07:34:03.388Z,11480
2017-09-26T07:35:03.119Z,10676
2017-09-26T07:35:52.524Z,12832
2017-09-26T07:36:47.200Z,14820
2017-09-26T07:37:41.275Z,13064
2017-09-26T07:38:41.536Z,15596
2017-09-26T07:39:36.902Z,15288
2017-09-26T07:40:36.428Z,13524
2017-09-26T07:41:36.382Z,13568
2017-09-26T07:42:31.881Z,13712
2017-09-26T07:43:31.792Z,14688
2017-09-26T07:44:26.654Z,14252
2017-09-26T07:45:21.906Z,15016
2017-09-26T07:46:22.170Z,15748
2017-09-26T07:47:15.696Z,15032
2017-09-26T07:48:16.899Z,15996
2017-09-26T07:49:16.912Z,17600
2017-09-26T07:50:10.921Z,17536
2017-09-26T07:51:10.929Z,17600
2017-09-26T07:52:05.068Z,17568
2017-09-26T07:53:06.078Z,16640
2017-09-26T07:54:07.105Z,21376
2017-09-26T07:55:07.308Z,18880
2017-09-26T07:56:07.122Z,17344
2017-09-26T07:57:07.304Z,18208
2017-09-26T07:58:01.379Z,16992
2017-09-26T07:59:02.318Z,16960
2017-09-26T07:59:56.444Z,17440
2017-09-26T08:00:50.507Z,18016
2017-09-26T08:01:50.418Z,21664
2017-09-26T08:02:44.427Z,19264
2017-09-26T08:03:45.807Z,18112
2017-09-26T08:04:39.887Z,18176
2017-09-26T08:05:39.368Z,18816
2017-09-26T08:06:33.397Z,21920
2017-09-26T08:07:33.408Z,20352
2017-09-26T08:08:28.544Z,18400
2017-09-26T08:09:22.516Z,20544
2017-09-26T08:10:17.076Z,21216
2017-09-26T08:11:11.616Z,19520
2017-09-26T08:12:11.659Z,18336
2017-09-26T08:13:06.725Z,18848
2017-09-26T08:14:06.994Z,17600
2017-09-26T08:15:00.791Z,20064
2017-09-26T08:16:00.791Z,19200
2017-09-26T08:16:49.861Z,16084
2017-09-26T08:17:38.906Z,17984
2017-09-26T08:18:32.902Z,20832
2017-09-26T08:19:28.401Z,18304
2017-09-26T08:20:34.196Z,18528
2017-09-26T08:21:23.296Z,22144
2017-09-26T08:22:17.367Z,21728
2017-09-26T08:23:12.921Z,21472
2017-09-26T08:24:06.530Z,23456
2017-09-26T08:25:01.567Z,22784
2017-09-26T08:25:56.573Z,22144
2017-09-26T08:26:56.711Z,19808
2017-09-26T08:27:50.843Z,21568
2017-09-26T08:28:44.390Z,22368
2017-09-26T08:29:40.016Z,20224
2017-09-26T08:30:40.122Z,20320
2017-09-26T08:31:34.499Z,23232
2017-09-26T08:32:29.544Z,23840
2017-09-26T08:33:30.759Z,24320
2017-09-26T08:34:30.634Z,21568
2017-09-26T08:35:25.702Z,24128
2017-09-26T08:36:25.851Z,23936
2017-09-26T08:37:20.882Z,23648
2017-09-26T08:38:14.817Z,21024
2017-09-26T08:39:14.931Z,20704
2017-09-26T08:40:15.053Z,20896
2017-09-26T08:41:21.136Z,20640
2017-09-26T08:42:15.991Z,20608
2017-09-26T08:43:09.993Z,19520
2017-09-26T08:44:05.067Z,19360
2017-09-26T08:45:06.085Z,19200
2017-09-26T08:46:01.130Z,18880
2017-09-26T08:46:55.537Z,20448
2017-09-26T08:47:56.218Z,22336
2017-09-26T08:48:50.334Z,21504
2017-09-26T08:49:39.856Z,21408
2017-09-26T08:50:34.737Z,20448
2017-09-26T08:51:34.905Z,18272
2017-09-26T08:52:29.803Z,18592
2017-09-26T08:53:23.497Z,20864
2017-09-26T08:54:23.587Z,20160
2017-09-26T08:55:17.528Z,24448
2017-09-26T08:56:17.619Z,22880
2017-09-26T08:57:12.612Z,20576
2017-09-26T08:58:07.690Z,24288
2017-09-26T08:59:01.713Z,26080
2017-09-26T08:59:55.855Z,24544
2017-09-26T09:00:50.801Z,27616
2017-09-26T09:01:45.221Z,26944
2017-09-26T09:02:45.056Z,27968
2017-09-26T09:03:38.903Z,41184
2017-09-26T09:04:40.540Z,29472
2017-09-26T09:05:29.350Z,23808
2017-09-26T09:06:24.065Z,25312
2017-09-26T09:07:24.118Z,21600
2017-09-26T09:08:24.112Z,22624
2017-09-26T09:09:18.554Z,21376
2017-09-26T09:10:18.497Z,24352
2017-09-26T09:11:12.272Z,25600
2017-09-26T09:12:06.849Z,22688
2017-09-26T09:13:06.883Z,22528
2017-09-26T09:14:00.885Z,22464
2017-09-26T09:15:00.797Z,22208
2017-09-26T09:15:55.120Z,21440
2017-09-26T09:16:54.706Z,20480
2017-09-26T09:17:48.638Z,21216
2017-09-26T09:18:49.625Z,23264
2017-09-26T09:19:51.364Z,22112
2017-09-26T09:20:51.002Z,23264
2017-09-26T09:21:51.029Z,28448
2017-09-26T09:22:44.853Z,23904
2017-09-26T09:23:45.171Z,24032
2017-09-26T09:24:40.421Z,27360
2017-09-26T09:25:35.215Z,29728
2017-09-26T09:26:29.226Z,35936
2017-09-26T09:27:29.422Z,23200
2017-09-26T09:28:24.302Z,23136
2017-09-26T09:29:19.379Z,35488
2017-09-26T09:30:13.411Z,37696
2017-09-26T09:31:13.157Z,39168
2017-09-26T09:32:07.539Z,48768
2017-09-26T09:32:55.266Z,42464
2017-09-26T09:33:44.735Z,55008
2017-09-26T09:34:38.717Z,54816
2017-09-26T09:35:38.814Z,54240
2017-09-26T09:36:32.893Z,49632
2017-09-26T09:37:27.493Z,51552
2017-09-26T09:38:22.521Z,50048
2017-09-26T09:39:17.560Z,32032
2017-09-26T09:40:06.662Z,29568
2017-09-26T09:41:00.972Z,52736
2017-09-26T09:41:55.696Z,53440
2017-09-26T09:42:55.829Z,51136
2017-09-26T09:43:45.307Z,27520
2017-09-26T09:44:33.855Z,30912
2017-09-26T09:45:34.070Z,33856
2017-09-26T09:46:23.119Z,41088
2017-09-26T09:47:16.991Z,41120
2017-09-26T09:48:23.331Z,51968
2017-09-26T09:49:18.514Z,28448
2017-09-26T09:50:12.594Z,27776
2017-09-26T09:51:06.492Z,39008
2017-09-26T09:51:55.742Z,27936
2017-09-26T09:52:55.664Z,55264
2017-09-26T09:53:44.308Z,41728
2017-09-26T09:54:39.846Z,38752
2017-09-26T09:55:33.901Z,48672
2017-09-26T09:56:28.895Z,29344
2017-09-26T09:57:24.024Z,51616
2017-09-26T09:58:13.084Z,58176
2017-09-26T09:59:07.894Z,32704
2017-09-26T10:00:02.099Z,57664
2017-09-26T10:00:56.101Z,56512
2017-09-26T10:01:44.298Z,27456
2017-09-26T10:02:44.074Z,51168
2017-09-26T10:03:33.228Z,51360
2017-09-26T10:04:27.396Z,53472
2017-09-26T10:05:22.458Z,36064
2017-09-26T10:06:16.458Z,45216
2017-09-26T10:07:10.572Z,58304
2017-09-26T10:07:59.576Z,57408
2017-09-26T10:08:54.651Z,54880
2017-09-26T10:09:42.747Z,36128
2017-09-26T10:10:36.772Z,44672
2017-09-26T10:11:24.800Z,51456
2017-09-26T10:12:18.874Z,55264
2017-09-26T10:13:07.913Z,54560
2017-09-26T10:14:02.978Z,52672
2017-09-26T10:15:03.060Z,47136
2017-09-26T10:15:57.117Z,46176
2017-09-26T10:16:57.132Z,46080
2017-09-26T10:17:51.152Z,43136
2017-09-26T10:18:45.154Z,46592
2017-09-26T10:19:40.275Z,25792
2017-09-26T10:20:34.319Z,47840
2017-09-26T10:21:23.482Z,50944
2017-09-26T10:22:22.470Z,52160
2017-09-26T10:23:17.474Z,54560
2017-09-26T10:24:12.511Z,33152
2017-09-26T10:25:12.586Z,43296
2017-09-26T10:26:07.521Z,49344
2017-09-26T10:27:02.708Z,61536
2017-09-26T10:28:03.777Z,60864
2017-09-26T10:28:57.800Z,27840
2017-09-26T10:29:52.010Z,57760
2017-09-26T10:30:39.903Z,56544
2017-09-26T10:31:35.071Z,53184
2017-09-26T10:32:35.012Z,52576
2017-09-26T10:33:30.257Z,50368
2017-09-26T10:34:24.097Z,50848
2017-09-26T10:35:19.187Z,19648
2017-09-26T10:36:14.191Z,44896
2017-09-26T10:37:08.289Z,54848
2017-09-26T10:38:08.368Z,30304
2017-09-26T10:39:03.426Z,37248
2017-09-26T10:39:52.414Z,21280
2017-09-26T10:40:41.497Z,31424
2017-09-26T10:41:35.627Z,42912
2017-09-26T10:42:35.587Z,25120
2017-09-26T10:43:23.663Z,18744
2017-09-26T10:44:23.622Z,22688
2017-09-26T10:45:17.762Z,50752
2017-09-26T10:46:17.784Z,49632
2017-09-26T10:47:11.806Z,47648
2017-09-26T10:48:05.928Z,47904
2017-09-26T10:49:01.024Z,39200
2017-09-26T10:49:55.064Z,39232
2017-09-26T10:50:50.022Z,44608
2017-09-26T10:51:44.137Z,51872
2017-09-26T10:52:44.149Z,56000
2017-09-26T10:53:38.232Z,52736
2017-09-26T10:54:26.318Z,44960
2017-09-26T10:55:20.272Z,42848
2017-09-26T10:56:14.303Z,45408
2017-09-26T10:57:08.429Z,47616
2017-09-26T10:58:02.494Z,25568
2017-09-26T10:58:50.671Z,25760
2017-09-26T10:59:39.588Z,22560
2017-09-26T11:00:33.618Z,19072
2017-09-26T11:01:33.664Z,18208
2017-09-26T11:02:33.824Z,18048
2017-09-26T11:03:27.751Z,20352
2017-09-26T11:04:21.793Z,17380
2017-09-26T11:05:10.900Z,16912
2017-09-26T11:06:04.957Z,20576
2017-09-26T11:07:04.491Z,29024
2017-09-26T11:07:59.245Z,46592
2017-09-26T11:08:53.667Z,48416
2017-09-26T11:09:54.088Z,53088
2017-09-26T11:10:49.417Z,54176
2017-09-26T11:11:43.327Z,54016
2017-09-26T11:12:38.212Z,46048
2017-09-26T11:13:32.266Z,51776
2017-09-26T11:14:26.330Z,40544
2017-09-26T11:15:21.444Z,33952
2017-09-26T11:16:15.672Z,46400
2017-09-26T11:17:09.536Z,57952
2017-09-26T11:18:04.574Z,26496
2017-09-26T11:18:53.715Z,36256
2017-09-26T11:19:41.758Z,61536
2017-09-26T11:20:29.880Z,64192
2017-09-26T11:21:23.865Z,28064
2017-09-26T11:22:17.803Z,59264
2017-09-26T11:23:06.011Z,32000
2017-09-26T11:23:55.087Z,60384
2017-09-26T11:24:44.117Z,61408
2017-09-26T11:25:33.071Z,64256
2017-09-26T11:26:27.199Z,61472
2017-09-26T11:27:22.205Z,57248
2017-09-26T11:28:17.268Z,55072
2017-09-26T11:29:12.282Z,57792
2017-09-26T11:30:06.342Z,56864
2017-09-26T11:31:06.401Z,54080
2017-09-26T11:32:00.453Z,49184
2017-09-26T11:32:55.368Z,45536
2017-09-26T11:33:55.344Z,44864
2017-09-26T11:34:50.635Z,29152
2017-09-26T11:35:44.682Z,50304
2017-09-26T11:36:38.580Z,53600
2017-09-26T11:37:32.695Z,55008
2017-09-26T11:38:27.833Z,69760
2017-09-26T11:39:22.853Z,53568
2017-09-26T11:40:16.776Z,51904
2017-09-26T11:41:05.598Z,104288
2017-09-26T11:42:01.095Z,32288
2017-09-26T11:43:01.074Z,55872
2017-09-26T11:43:55.637Z,28864
2017-09-26T11:44:45.265Z,58944
2017-09-26T11:45:34.221Z,51296
2017-09-26T11:46:34.250Z,53184
2017-09-26T11:47:28.077Z,51712
2017-09-26T11:48:17.255Z,28352
2017-09-26T11:49:12.475Z,36032
2017-09-26T11:50:01.530Z,26944
2017-09-26T11:50:56.452Z,26048
2017-09-26T11:51:50.413Z,23872
2017-09-26T11:52:44.524Z,24000
2017-09-26T11:53:39.767Z,33280
2017-09-26T11:54:39.742Z,42624
2017-09-26T11:55:33.789Z,21984
2017-09-26T11:56:22.892Z,21888
2017-09-26T11:57:16.931Z,21216
2017-09-26T11:58:10.505Z,24032
2017-09-26T11:59:05.590Z,39616
2017-09-26T11:59:59.989Z,38336
2017-09-26T12:00:59.710Z,21120
2017-09-26T12:01:55.118Z,19392
2017-09-26T12:02:48.923Z,18336
2017-09-26T12:03:43.839Z,16656
2017-09-26T12:04:44.490Z,15256
2017-09-26T12:05:38.249Z,14884
2017-09-26T12:06:32.347Z,16068
2017-09-26T12:07:21.346Z,17792
2017-09-26T12:08:09.609Z,21408
2017-09-26T12:09:03.162Z,23648
2017-09-26T12:10:03.465Z,27648
2017-09-26T12:10:57.213Z,26464
2017-09-26T12:11:51.538Z,26464
2017-09-26T12:12:40.365Z,26240
2017-09-26T12:13:34.398Z,24672
2017-09-26T12:14:28.473Z,22752
2017-09-26T12:15:22.676Z,22720
2017-09-26T12:16:16.993Z,22560
2017-09-26T12:17:05.680Z,22720
2017-09-26T12:18:00.670Z,21472
2017-09-26T12:18:54.889Z,19904
2017-09-26T12:19:55.404Z,19744
2017-09-26T12:20:48.800Z,21248
2017-09-26T12:21:43.089Z,23936
2017-09-26T12:22:36.901Z,26784
2017-09-26T12:23:31.142Z,31264
2017-09-26T12:24:25.015Z,24960
2017-09-26T12:25:25.153Z,20928
2017-09-26T12:26:25.292Z,20544
2017-09-26T12:27:20.345Z,15932
2017-09-26T12:28:20.215Z,15080
2017-09-26T12:29:14.245Z,15432
2017-09-26T12:30:03.729Z,15824
2017-09-26T12:31:03.353Z,17568
2017-09-26T12:31:57.847Z,18656
2017-09-26T12:32:51.753Z,19648